Time;durP1;ratioP1;P1;durP2;ratioP2;P2;SDS_P1;SDS_P2;PMS_P1;PMS_P2;Temp;Humidity;BMP_temperature;BMP_pressure;BME280_temperature;BME280_humidity;BME280_pressure;Samples;Min_cycle;Max_cycle;Signal;HPM_P1;HPM_P2
2022/01/13 00:01:49;;;;;;;10.83;7.20;;;;;;;-0.35;100.00;101071.25;5111197;28;20344;-57
2022/01/13 00:04:17;;;;;;;13.90;7.67;;;;;;;-0.38;100.00;101069.44;5111176;28;20224;-59
2022/01/13 00:06:44;;;;;;;11.90;7.77;;;;;;;-0.41;100.00;101076.97;5110984;28;20720;-62
2022/01/13 00:09:11;;;;;;;10.23;7.00;;;;;;;-0.36;100.00;101075.50;5111145;28;20201;-56
2022/01/13 00:11:38;;;;;;;11.63;7.50;;;;;;;-0.30;100.00;101070.63;5110626;28;20198;-57
2022/01/13 00:14:25;;;;;;;11.20;7.93;;;;;;;-0.32;100.00;101081.56;5111134;28;20584;-56
2022/01/13 00:19:56;;;;;;;12.60;8.47;;;;;;;-0.41;100.00;101079.53;5085843;28;20194;-56
2022/01/13 00:22:38;;;;;;;9.33;7.13;;;;;;;-0.48;100.00;101075.88;5110557;28;20597;-57
2022/01/13 00:25:08;;;;;;;11.03;7.90;;;;;;;-0.44;100.00;101074.28;5110600;28;20270;-57
2022/01/13 00:27:38;;;;;;;11.10;7.63;;;;;;;-0.26;100.00;101081.81;5110725;28;20746;-57
2022/01/13 00:30:13;;;;;;;10.87;8.00;;;;;;;-0.32;100.00;101081.56;5110321;28;20205;-56
2022/01/13 00:33:17;;;;;;;10.30;7.27;;;;;;;-0.41;100.00;101092.28;5110466;28;20197;-56
2022/01/13 00:35:44;;;;;;;13.83;7.97;;;;;;;-0.38;100.00;101090.72;5104205;28;20550;-56
2022/01/13 00:38:11;;;;;;;14.37;8.23;;;;;;;-0.53;100.00;101101.97;5110662;28;20196;-56
2022/01/13 00:41:23;;;;;;;14.40;8.83;;;;;;;-0.57;100.00;101102.69;5110499;28;20582;-57
2022/01/13 00:44:25;;;;;;;11.93;7.63;;;;;;;-0.49;100.00;101108.97;5023987;28;20266;-57
2022/01/13 00:46:58;;;;;;;10.67;7.20;;;;;;;-0.43;100.00;101114.28;5029601;28;20665;-57
2022/01/13 00:49:41;;;;;;;12.23;8.03;;;;;;;-0.56;100.00;101091.66;5110374;28;20207;-56
2022/01/13 00:52:08;;;;;;;14.47;8.60;;;;;;;-0.49;100.00;101125.13;5109346;28;20205;-56
2022/01/13 00:54:35;;;;;;;14.90;8.67;;;;;;;-0.53;100.00;101109.63;5110617;28;20203;-61
2022/01/13 00:57:02;;;;;;;12.40;8.47;;;;;;;-0.51;100.00;101118.22;5110369;28;20255;-61
2022/01/13 00:59:30;;;;;;;12.43;8.70;;;;;;;-0.59;100.00;101114.50;5110555;28;20292;-61
2022/01/13 01:01:57;;;;;;;15.60;9.33;;;;;;;-0.73;100.00;101114.78;5110223;28;20203;-61
2022/01/13 01:04:24;;;;;;;16.40;8.90;;;;;;;-0.82;100.00;101124.59;5110567;28;20608;-61
2022/01/13 01:06:53;;;;;;;14.83;8.97;;;;;;;-0.74;100.00;101117.28;5110348;28;20274;-61
2022/01/13 01:09:29;;;;;;;13.13;9.17;;;;;;;-0.81;100.00;101121.25;5110403;28;20666;-61
2022/01/13 01:11:56;;;;;;;13.73;8.97;;;;;;;-0.81;100.00;101128.03;5110305;28;20201;-57
2022/01/13 01:14:24;;;;;;;17.70;9.40;;;;;;;-0.79;100.00;101122.16;5110086;28;20205;-57
2022/01/13 01:16:51;;;;;;;14.47;9.27;;;;;;;-0.96;100.00;101130.78;5110513;28;20665;-55
2022/01/13 01:19:26;;;;;;;12.90;8.70;;;;;;;-1.00;100.00;101130.56;5110147;28;20282;-56
2022/01/13 01:22:18;;;;;;;16.10;8.53;;;;;;;-1.03;100.00;101131.34;5109994;28;20208;-60
2022/01/13 01:27:33;;;;;;;13.33;8.80;;;;;;;-1.06;100.00;101131.19;5110157;28;20232;-60
2022/01/13 01:30:06;;;;;;;13.07;8.37;;;;;;;-1.03;100.00;101133.88;5110160;28;20191;-60
2022/01/13 01:32:36;;;;;;;12.77;8.63;;;;;;;-1.09;100.00;101138.69;5109310;28;20296;-61
2022/01/13 01:35:12;;;;;;;14.60;9.60;;;;;;;-1.05;100.00;101145.69;5109225;28;20234;-61
2022/01/13 01:37:41;;;;;;;15.43;9.20;;;;;;;-1.09;100.00;101138.69;5109232;28;20195;-61
2022/01/13 01:40:10;;;;;;;11.57;8.13;;;;;;;-1.07;100.00;101147.28;5109812;28;20592;-60
2022/01/13 01:42:46;;;;;;;12.80;8.53;;;;;;;-1.00;100.00;101145.84;5113515;28;20650;-61
2022/01/13 01:45:14;;;;;;;11.97;8.47;;;;;;;-0.94;100.00;101147.00;5113334;28;20263;-61
2022/01/13 01:47:43;;;;;;;12.00;8.60;;;;;;;-0.80;100.00;101155.25;5112922;28;20685;-57
2022/01/13 01:50:18;;;;;;;13.80;8.70;;;;;;;-0.81;100.00;101153.50;5113339;28;20197;-56
2022/01/13 01:52:47;;;;;;;13.10;8.27;;;;;;;-0.94;100.00;101151.25;5113304;28;20196;-56
2022/01/13 01:55:14;;;;;;;12.70;8.50;;;;;;;-0.91;100.00;101151.38;5113248;28;20559;-56
2022/01/13 01:57:43;;;;;;;15.77;9.10;;;;;;;-0.95;100.00;101146.94;5113108;28;20195;-56
2022/01/13 02:00:13;;;;;;;13.63;8.90;;;;;;;-1.30;100.00;101114.81;5112894;28;20289;-56
2022/01/13 02:02:40;;;;;;;13.77;9.13;;;;;;;-1.17;100.00;101150.22;5113320;28;20218;-56
2022/01/13 02:05:08;;;;;;;14.67;8.73;;;;;;;-1.01;100.00;101141.56;5113137;28;20203;-56
2022/01/13 02:07:35;;;;;;;15.13;9.27;;;;;;;-1.17;100.00;101145.13;5113052;28;20640;-56
2022/01/13 02:10:04;;;;;;;14.77;9.33;;;;;;;-1.22;100.00;101139.81;5113107;28;20710;-56
2022/01/13 02:12:37;;;;;;;14.03;8.77;;;;;;;-1.15;100.00;101135.88;5112845;28;20585;-56
2022/01/13 02:15:28;;;;;;;12.23;8.67;;;;;;;-1.26;100.00;101116.72;5112884;28;20253;-56
2022/01/13 02:17:55;;;;;;;13.93;9.40;;;;;;;-1.29;100.00;101114.91;5112885;28;20195;-56
2022/01/13 02:20:24;;;;;;;15.33;9.50;;;;;;;-1.24;100.00;101138.03;5112981;28;20294;-56
2022/01/13 02:22:51;;;;;;;17.97;10.87;;;;;;;-1.47;100.00;101122.56;5112694;28;20201;-60
2022/01/13 02:25:19;;;;;;;16.67;10.07;;;;;;;-1.48;100.00;101133.59;5112493;28;20615;-61
2022/01/13 02:27:46;;;;;;;17.93;10.50;;;;;;;-1.31;100.00;101143.63;5112417;28;20716;-56
2022/01/13 02:30:14;;;;;;;15.30;9.47;;;;;;;-1.32;100.00;101141.88;5112438;28;20264;-55
2022/01/13 02:32:41;;;;;;;16.93;10.23;;;;;;;-1.37;100.00;101134.06;5112276;28;20200;-56
2022/01/13 02:35:09;;;;;;;16.70;9.80;;;;;;;-1.61;100.00;101127.84;5111683;28;20202;-56
2022/01/13 02:37:37;;;;;;;15.97;9.77;;;;;;;-1.64;100.00;101126.03;5111555;28;20685;-60
2022/01/13 02:40:05;;;;;;;16.93;10.03;;;;;;;-1.54;100.00;101125.66;5111625;28;20194;-60
2022/01/13 02:42:33;;;;;;;15.93;9.47;;;;;;;-1.59;100.00;101118.63;5112042;28;20199;-60
2022/01/13 02:45:05;;;;;;;17.90;9.90;;;;;;;-1.64;100.00;101128.59;5112025;28;20202;-60
2022/01/13 02:47:58;;;;;;;16.77;10.03;;;;;;;-1.71;100.00;101120.59;5112226;28;20934;-60
2022/01/13 02:50:24;;;;;;;14.57;9.40;;;;;;;-1.58;100.00;101121.22;5111787;28;20575;-60
2022/01/13 02:52:52;;;;;;;15.87;9.70;;;;;;;-1.62;100.00;101121.03;5112013;28;20194;-60
2022/01/13 02:55:20;;;;;;;17.27;10.37;;;;;;;-1.84;100.00;101119.16;5111754;28;20205;-60
2022/01/13 02:57:47;;;;;;;17.30;10.33;;;;;;;-1.92;100.00;101118.78;5111896;28;20230;-60
2022/01/13 03:00:17;;;;;;;18.63;10.33;;;;;;;-1.94;100.00;101117.00;5111896;28;20195;-61
2022/01/13 03:02:47;;;;;;;16.10;9.70;;;;;;;-1.86;100.00;101115.66;5111570;28;20668;-60
2022/01/13 03:05:15;;;;;;;19.33;10.27;;;;;;;-1.76;100.00;101125.47;5111836;28;20205;-60
2022/01/13 03:07:42;;;;;;;15.37;9.70;;;;;;;-1.73;100.00;101114.56;5111430;28;20578;-56
2022/01/13 03:10:12;;;;;;;18.10;10.33;;;;;;;-1.84;100.00;101114.94;5111572;28;20199;-60
2022/01/13 03:12:42;;;;;;;20.67;10.07;;;;;;;-1.88;100.00;101115.59;5111660;28;20202;-60
2022/01/13 03:15:10;;;;;;;16.83;9.23;;;;;;;-1.83;100.00;101113.28;5111485;28;20200;-61
2022/01/13 03:17:37;;;;;;;13.33;9.00;;;;;;;-1.72;100.00;101114.66;5111320;28;20261;-62
2022/01/13 03:20:06;;;;;;;15.80;10.00;;;;;;;-1.76;100.00;101115.28;5111517;28;20195;-62
2022/01/13 03:22:33;;;;;;;14.03;9.30;;;;;;;-1.74;100.00;101113.69;5111497;28;20277;-62
2022/01/13 03:25:00;;;;;;;17.07;9.83;;;;;;;-1.70;100.00;101112.16;5111703;28;20594;-60
2022/01/13 03:27:34;;;;;;;15.37;8.80;;;;;;;-1.65;100.00;101105.59;5111215;28;20777;-55
2022/01/13 03:30:05;;;;;;;12.10;8.03;;;;;;;-1.60;100.00;101097.38;5111405;28;20289;-55
2022/01/13 03:32:32;;;;;;;14.97;8.83;;;;;;;-1.47;100.00;101104.75;5111390;28;20230;-55
2022/01/13 03:34:59;;;;;;;14.93;8.97;;;;;;;-1.41;100.00;101111.78;5111279;28;20194;-55
2022/01/13 03:37:27;;;;;;;18.37;8.97;;;;;;;-1.76;100.00;101110.19;5110420;28;20292;-56
2022/01/13 03:39:54;;;;;;;14.67;9.03;;;;;;;-1.76;100.00;101119.50;5110457;28;20221;-56
2022/01/13 03:42:21;;;;;;;13.57;8.83;;;;;;;-1.65;100.00;101116.66;5110343;28;20195;-56
2022/01/13 03:44:49;;;;;;;15.83;9.17;;;;;;;-1.67;100.00;101123.34;5110485;28;20592;-56
2022/01/13 03:47:16;;;;;;;16.80;9.57;;;;;;;-1.80;100.00;101112.53;5110723;28;20229;-56
2022/01/13 03:49:44;;;;;;;15.53;9.07;;;;;;;-1.81;100.00;101119.31;5110887;28;20282;-56
2022/01/13 03:52:52;;;;;;;15.00;9.73;;;;;;;-1.55;100.00;101115.41;5110640;28;20197;-56
2022/01/13 03:56:08;;;;;;;14.90;8.97;;;;;;;-1.61;100.00;101110.91;5110880;28;20199;-60
2022/01/13 03:59:20;;;;;;;19.30;9.83;;;;;;;-1.58;100.00;101105.94;5028206;28;20201;-56
2022/01/13 04:02:09;;;;;;;17.87;9.63;;;;;;;-1.62;100.00;101106.63;5095829;28;20197;-60
2022/01/13 04:04:38;;;;;;;17.50;10.50;;;;;;;-1.68;100.00;101120.72;5090003;28;20227;-56
2022/01/13 04:07:08;;;;;;;19.63;11.27;;;;;;;-1.76;100.00;101120.38;5089918;28;20211;-56
2022/01/13 04:10:14;;;;;;;21.07;11.63;;;;;;;-1.85;100.00;101125.94;5087503;28;20199;-56
2022/01/13 04:12:41;;;;;;;17.30;11.07;;;;;;;-1.80;100.00;101127.78;5001274;28;20347;-56
2022/01/13 04:15:12;;;;;;;18.83;11.07;;;;;;;-1.74;100.00;101131.50;5087325;28;20200;-56
2022/01/13 04:17:40;;;;;;;20.80;10.67;;;;;;;-1.92;100.00;101134.06;5088846;28;20194;-56
2022/01/13 04:20:09;;;;;;;15.93;10.57;;;;;;;-1.88;100.00;101155.44;5088801;28;20208;-56
2022/01/13 04:22:36;;;;;;;18.57;10.70;;;;;;;-1.84;100.00;101148.03;5086700;28;20668;-56
2022/01/13 04:25:06;;;;;;;20.60;10.80;;;;;;;-1.88;100.00;101155.44;5089140;28;20193;-56
2022/01/13 04:27:37;;;;;;;23.37;11.67;;;;;;;-1.94;100.00;101152.63;5086463;28;20227;-55
2022/01/13 04:32:48;;;;;;;23.03;12.90;;;;;;;-1.98;100.00;101169.41;5071537;28;20192;-56
2022/01/13 04:35:15;;;;;;;19.60;12.13;;;;;;;-1.94;100.00;101166.22;5088468;28;20199;-55
2022/01/13 04:37:42;;;;;;;20.63;10.83;;;;;;;-1.94;100.00;101155.16;5089457;28;20187;-56
2022/01/13 04:40:10;;;;;;;19.53;10.77;;;;;;;-1.91;100.00;101163.78;5089096;28;20238;-60
2022/01/13 04:42:41;;;;;;;19.10;11.57;;;;;;;-2.07;100.00;101158.78;5088612;28;20250;-60
2022/01/13 04:45:09;;;;;;;20.13;11.57;;;;;;;-1.97;100.00;101158.44;5088543;28;20235;-62
2022/01/13 04:47:36;;;;;;;20.97;11.13;;;;;;;-1.89;100.00;101154.56;5088503;28;20219;-61
2022/01/13 04:50:05;;;;;;;17.93;11.10;;;;;;;-1.82;100.00;101160.84;5090216;28;20230;-62
2022/01/13 04:52:31;;;;;;;18.80;10.43;;;;;;;-1.88;100.00;101163.06;5090229;28;20651;-54
2022/01/13 04:55:07;;;;;;;21.57;11.63;;;;;;;-1.76;100.00;101160.22;5089652;28;20632;-55
2022/01/13 04:57:34;;;;;;;19.10;10.30;;;;;;;-1.80;100.00;101163.44;5089929;28;20252;-60
2022/01/13 05:00:01;;;;;;;19.73;10.77;;;;;;;-1.82;100.00;101163.38;5089916;28;20583;-60
2022/01/13 05:02:28;;;;;;;19.30;10.67;;;;;;;-1.84;100.00;101167.53;5089548;28;20202;-61
2022/01/13 05:04:55;;;;;;;17.87;9.73;;;;;;;-1.79;100.00;101176.22;5089634;28;20290;-61
2022/01/13 05:07:23;;;;;;;19.83;10.73;;;;;;;-1.85;100.00;101183.59;5089861;28;20219;-61
2022/01/13 05:09:50;;;;;;;18.43;11.13;;;;;;;-1.82;100.00;101173.56;5089950;28;20192;-61
2022/01/13 05:12:18;;;;;;;17.73;10.07;;;;;;;-1.71;100.00;101176.59;5089868;28;20233;-61
2022/01/13 05:14:52;;;;;;;17.93;10.27;;;;;;;-1.77;100.00;101169.53;5089847;28;20570;-61
2022/01/13 05:17:46;;;;;;;18.73;10.83;;;;;;;-1.65;100.00;101171.78;5093892;28;20242;-61
2022/01/13 05:20:15;;;;;;;14.90;9.60;;;;;;;-1.71;100.00;101174.94;5093482;28;20257;-55
2022/01/13 05:22:44;;;;;;;19.87;11.10;;;;;;;-1.83;100.00;101184.53;5093842;28;20196;-56
2022/01/13 05:25:11;;;;;;;17.30;10.50;;;;;;;-1.91;100.00;101185.81;5093715;28;20230;-56
2022/01/13 05:27:38;;;;;;;28.77;15.33;;;;;;;-1.95;100.00;101183.94;5109884;28;20669;-56
2022/01/13 05:30:07;;;;;;;39.60;19.37;;;;;;;-1.90;100.00;101193.53;5114092;28;20309;-56
2022/01/13 05:32:34;;;;;;;36.73;18.57;;;;;;;-1.83;100.00;101190.50;5113874;28;20201;-61
2022/01/13 05:35:02;;;;;;;34.30;18.57;;;;;;;-1.86;100.00;101194.56;5114080;28;20681;-61
2022/01/13 05:37:30;;;;;;;28.17;15.97;;;;;;;-1.94;100.00;101206.06;5113814;28;20282;-60
2022/01/13 05:39:59;;;;;;;33.10;16.73;;;;;;;-1.98;100.00;101199.06;5113712;28;20408;-60
2022/01/13 05:42:25;;;;;;;30.03;15.07;;;;;;;-1.94;100.00;101188.25;5113550;28;20283;-61
2022/01/13 05:44:53;;;;;;;26.63;14.40;;;;;;;-1.91;100.00;101201.09;5113570;28;20209;-61
2022/01/13 05:47:21;;;;;;;27.43;14.60;;;;;;;-1.89;100.00;101200.38;5113492;28;20259;-60
2022/01/13 05:49:48;;;;;;;32.30;16.10;;;;;;;-2.02;100.00;101202.25;5113595;28;20643;-61
2022/01/13 05:52:15;;;;;;;30.83;16.43;;;;;;;-2.06;100.00;101206.34;5113420;28;20202;-62
2022/01/13 05:54:42;;;;;;;29.60;16.03;;;;;;;-2.10;100.00;101203.56;5113427;28;20667;-60
2022/01/13 05:57:11;;;;;;;37.47;18.10;;;;;;;-2.18;100.00;101205.72;5113366;28;20191;-61
2022/01/13 05:59:38;;;;;;;37.97;19.37;;;;;;;-2.14;100.00;101211.84;5113359;28;20199;-61
2022/01/13 06:02:06;;;;;;;39.47;20.20;;;;;;;-2.29;100.00;101197.56;5113348;28;20201;-61
2022/01/13 06:04:33;;;;;;;29.20;17.07;;;;;;;-2.05;100.00;101228.44;5113331;28;20586;-62
2022/01/13 06:07:00;;;;;;;31.17;15.60;;;;;;;-2.07;100.00;101193.53;5113021;28;20232;-61
2022/01/13 06:09:27;;;;;;;28.37;14.20;;;;;;;-1.80;100.00;101229.59;5113425;28;20668;-61
2022/01/13 06:11:58;;;;;;;22.63;13.67;;;;;;;-1.78;100.00;101217.81;5113103;28;20202;-62
2022/01/13 06:14:26;;;;;;;28.00;14.07;;;;;;;-1.87;100.00;101223.34;5112994;28;20252;-57
2022/01/13 06:16:53;;;;;;;26.80;12.70;;;;;;;-1.81;100.00;101228.75;5113173;28;20663;-56
2022/01/13 06:19:20;;;;;;;23.70;12.80;;;;;;;-1.74;100.00;101232.44;5113048;28;20581;-57
2022/01/13 06:21:48;;;;;;;23.03;12.67;;;;;;;-1.70;100.00;101222.50;5113095;28;20210;-56
2022/01/13 06:24:15;;;;;;;21.40;12.67;;;;;;;-1.57;100.00;101239.22;5112832;28;20194;-57
2022/01/13 06:27:10;;;;;;;26.43;12.17;;;;;;;-1.56;100.00;101236.72;5103790;28;20222;-57
2022/01/13 06:32:46;;;;;;;21.17;11.30;;;;;;;-1.39;100.00;101235.00;5068520;28;20202;-55
2022/01/13 06:35:17;;;;;;;21.13;11.20;;;;;;;-1.48;100.00;101221.84;5109728;28;20299;-55
2022/01/13 06:37:44;;;;;;;15.47;10.10;;;;;;;-1.39;100.00;101244.31;5101626;28;20282;-56
2022/01/13 06:40:13;;;;;;;17.97;10.60;;;;;;;-1.43;100.00;101250.91;5112740;28;20207;-55
2022/01/13 06:42:40;;;;;;;18.03;10.67;;;;;;;-1.39;100.00;101262.13;5090771;28;20229;-56
2022/01/13 06:45:11;;;;;;;19.13;10.67;;;;;;;-1.34;100.00;101250.47;5091841;28;20217;-57
2022/01/13 06:47:42;;;;;;;17.83;10.30;;;;;;;-1.27;100.00;101253.41;5102683;28;20227;-55
2022/01/13 06:50:11;;;;;;;21.77;10.67;;;;;;;-1.29;100.00;101251.56;5112324;28;20231;-56
2022/01/13 06:52:38;;;;;;;19.07;11.47;;;;;;;-1.23;100.00;101256.94;5111552;28;20226;-59
2022/01/13 06:55:06;;;;;;;22.33;12.00;;;;;;;-1.16;100.00;101253.88;5111753;28;20220;-62
2022/01/13 06:57:33;;;;;;;16.87;10.57;;;;;;;-1.12;100.00;101268.50;5111286;28;20303;-56
2022/01/13 07:03:32;;;;;;;17.57;10.80;;;;;;;-1.06;100.00;101261.16;5072289;28;20244;-56
2022/01/13 07:06:01;;;;;;;23.30;11.67;;;;;;;-1.12;100.00;101271.03;5111776;28;20679;-56
2022/01/13 07:08:33;;;;;;;29.10;11.30;;;;;;;-1.11;100.00;101270.25;5111490;28;20280;-56
2022/01/13 07:11:02;;;;;;;29.07;12.10;;;;;;;-1.05;100.00;101273.09;5106640;28;20206;-55
2022/01/13 07:13:29;;;;;;;19.83;10.90;;;;;;;-0.94;100.00;101264.25;5111917;28;20254;-56
2022/01/13 07:15:58;;;;;;;22.17;12.20;;;;;;;-0.96;100.00;101268.41;5111818;28;20198;-56
2022/01/13 07:18:30;;;;;;;21.20;12.23;;;;;;;-0.84;100.00;101278.28;5111978;28;20663;-56
2022/01/13 07:20:57;;;;;;;19.13;11.27;;;;;;;-0.90;100.00;101283.97;5111723;28;20197;-61
2022/01/13 07:23:24;;;;;;;21.57;12.10;;;;;;;-0.78;100.00;101289.63;5111753;28;20205;-60
2022/01/13 07:25:51;;;;;;;20.30;11.40;;;;;;;-0.71;100.00;101295.00;5111443;28;20286;-55
2022/01/13 07:28:18;;;;;;;18.43;10.93;;;;;;;-0.63;100.00;101291.13;5111618;28;20228;-57
2022/01/13 07:30:45;;;;;;;18.77;10.70;;;;;;;-0.59;100.00;101285.34;5111686;28;20193;-61
2022/01/13 07:33:12;;;;;;;18.87;11.00;;;;;;;-0.53;100.00;101285.63;5111469;28;20197;-57
2022/01/13 07:35:40;;;;;;;18.77;11.97;;;;;;;-0.45;100.00;101289.38;5111439;28;20206;-57
2022/01/13 07:38:07;;;;;;;18.60;11.50;;;;;;;-0.38;100.00;101282.06;5110798;28;20194;-56
2022/01/13 07:41:15;;;;;;;17.03;11.37;;;;;;;-0.21;100.00;101285.31;5111220;28;20201;-56
2022/01/13 07:43:47;;;;;;;17.17;10.53;;;;;;;-0.14;100.00;101289.91;5084585;28;20319;-56
2022/01/13 07:46:15;;;;;;;17.60;10.60;;;;;;;-0.11;100.00;101286.56;5069737;28;20225;-56
2022/01/13 07:48:42;;;;;;;23.10;11.87;;;;;;;-0.15;100.00;101288.16;5079419;28;20236;-56
2022/01/13 07:51:10;;;;;;;16.73;11.20;;;;;;;-0.03;100.00;101286.13;5089639;28;20230;-57
2022/01/13 07:53:37;;;;;;;19.47;11.43;;;;;;;0.05;100.00;101290.66;5090961;28;20314;-55
2022/01/13 07:56:04;;;;;;;19.77;11.40;;;;;;;0.11;100.00;101299.47;5090757;28;20209;-57
2022/01/13 07:58:33;;;;;;;20.77;12.27;;;;;;;0.26;100.00;101297.53;5090690;28;20680;-55
2022/01/13 08:01:00;;;;;;;19.30;11.10;;;;;;;0.31;100.00;101292.63;5090982;28;20198;-60
2022/01/13 08:03:27;;;;;;;17.37;11.63;;;;;;;0.32;100.00;101294.38;5090739;28;20297;-60
2022/01/13 08:05:54;;;;;;;19.37;12.40;;;;;;;0.41;100.00;101298.97;5090704;28;20277;-56
2022/01/13 08:08:22;;;;;;;17.90;11.23;;;;;;;0.48;100.00;101304.38;5090586;28;20222;-56
2022/01/13 08:10:49;;;;;;;23.77;11.13;;;;;;;0.65;100.00;101310.19;5090622;28;20278;-57
2022/01/13 08:13:16;;;;;;;15.93;10.40;;;;;;;0.77;99.49;101309.78;5090682;28;20277;-56
2022/01/13 08:15:53;;;;;;;18.53;11.23;;;;;;;0.81;98.62;101312.50;5091013;28;20588;-57
2022/01/13 08:21:55;;;;;;;22.33;12.83;;;;;;;0.85;100.00;101277.72;5044132;28;20293;-56
2022/01/13 08:24:23;;;;;;;24.80;13.50;;;;;;;1.02;100.00;101281.78;5089974;28;20282;-60
2022/01/13 08:29:37;;;;;;;20.50;11.60;;;;;;;1.18;95.52;101283.22;5082518;28;20230;-60
2022/01/13 08:32:04;;;;;;;18.07;11.60;;;;;;;1.27;95.57;101275.91;5109820;28;20228;-59
2022/01/13 08:34:31;;;;;;;17.83;10.80;;;;;;;1.33;92.55;101281.25;5109511;28;20210;-61
2022/01/13 08:36:58;;;;;;;20.20;10.53;;;;;;;1.30;93.04;101288.81;5109355;28;20225;-60
2022/01/13 08:39:27;;;;;;;16.97;10.83;;;;;;;1.40;93.55;101294.31;5086561;28;20205;-61
2022/01/13 08:41:54;;;;;;;17.13;10.23;;;;;;;1.45;92.37;101287.69;5067187;28;20204;-61
2022/01/13 08:44:21;;;;;;;18.23;10.23;;;;;;;1.49;91.54;101285.22;5068985;28;20192;-61
2022/01/13 08:46:47;;;;;;;20.43;11.47;;;;;;;1.51;91.50;101304.06;5069604;28;20200;-61
2022/01/13 08:49:15;;;;;;;24.90;13.73;;;;;;;1.59;91.28;101294.97;5070097;28;20220;-61
2022/01/13 08:51:42;;;;;;;25.27;12.67;;;;;;;1.57;90.58;101294.06;5073502;28;20207;-60
2022/01/13 08:54:08;;;;;;;17.37;11.87;;;;;;;1.63;90.82;101300.25;5073589;28;20192;-61
2022/01/13 08:56:37;;;;;;;25.73;13.00;;;;;;;1.75;90.16;101292.16;5073254;28;20195;-61
2022/01/13 08:59:04;;;;;;;23.97;12.67;;;;;;;1.92;89.49;101303.81;5073293;28;20197;-61
2022/01/13 09:01:31;;;;;;;16.13;11.53;;;;;;;1.85;88.97;101286.53;5073436;28;20196;-62
2022/01/13 09:03:59;;;;;;;18.63;11.43;;;;;;;1.96;88.71;101309.94;5073386;28;20283;-61
2022/01/13 09:06:26;;;;;;;18.33;11.33;;;;;;;1.98;88.63;101313.44;5073170;28;20196;-61
2022/01/13 09:14:27;;;;;;;20.63;11.20;;;;;;;2.00;88.77;101296.44;5064015;28;20204;-62
2022/01/13 09:16:57;;;;;;;17.80;11.47;;;;;;;1.81;87.15;101294.91;5083102;28;20199;-61
2022/01/13 09:19:24;;;;;;;19.97;11.17;;;;;;;1.76;87.49;101299.00;5081512;28;20206;-62
2022/01/13 09:25:12;;;;;;;20.52;13.95;;;;;;;1.73;89.28;101292.09;5061396;28;20442;-62
2022/01/13 09:27:41;;;;;;;22.67;12.53;;;;;;;1.73;88.96;101286.97;5070577;28;20231;-61
2022/01/13 09:30:10;;;;;;;18.37;11.57;;;;;;;1.72;89.88;101294.59;5082091;28;20228;-61
2022/01/13 09:32:38;;;;;;;19.47;12.70;;;;;;;1.73;89.94;101284.41;5077493;28;20199;-57
2022/01/13 09:35:07;;;;;;;20.73;12.60;;;;;;;1.65;90.40;101290.09;5092650;28;20200;-55
2022/01/13 09:37:34;;;;;;;23.90;11.90;;;;;;;1.25;91.29;101219.56;5092399;28;20652;-56
2022/01/13 09:40:02;;;;;;;17.47;11.43;;;;;;;1.54;91.35;101270.91;5093062;28;20209;-57
2022/01/13 09:42:31;;;;;;;22.70;12.37;;;;;;;1.57;92.55;101283.84;5092952;28;20578;-57
2022/01/13 09:45:01;;;;;;;23.70;12.90;;;;;;;1.62;92.99;101262.69;5092634;28;20210;-61
2022/01/13 09:47:29;;;;;;;23.10;13.43;;;;;;;1.71;93.00;101267.25;5092708;28;20214;-57
2022/01/13 09:49:56;;;;;;;26.80;13.03;;;;;;;1.78;91.57;101270.09;5092868;28;20206;-56
2022/01/13 09:52:23;;;;;;;22.93;12.97;;;;;;;1.76;91.90;101268.28;5092856;28;20206;-56
2022/01/13 09:54:50;;;;;;;25.07;13.20;;;;;;;1.74;91.79;101270.78;5092603;28;20193;-57
2022/01/13 09:57:17;;;;;;;23.03;13.10;;;;;;;1.74;91.69;101252.00;5092497;28;20200;-58
2022/01/13 09:59:44;;;;;;;23.47;13.53;;;;;;;1.88;91.31;101260.16;5092567;28;20197;-57
2022/01/13 10:02:13;;;;;;;19.30;11.83;;;;;;;1.88;91.94;101260.16;5091827;28;20662;-56
2022/01/13 10:04:46;;;;;;;21.20;13.03;;;;;;;1.74;91.96;101229.84;5092308;28;20669;-57
2022/01/13 10:07:17;;;;;;;22.83;13.37;;;;;;;1.94;93.23;101245.00;5092486;28;20651;-57
2022/01/13 10:09:53;;;;;;;23.80;12.93;;;;;;;1.94;92.87;101243.31;5092383;28;20227;-57
2022/01/13 10:12:25;;;;;;;17.53;11.63;;;;;;;1.85;88.60;101232.75;5092589;28;20210;-57
2022/01/13 10:17:50;;;;;;;22.03;12.03;;;;;;;2.01;88.27;101229.03;5092272;28;20322;-62
2022/01/13 10:20:19;;;;;;;20.80;11.63;;;;;;;2.03;88.69;101225.66;5092025;28;20293;-61
2022/01/13 10:22:48;;;;;;;18.87;11.50;;;;;;;2.08;88.52;101224.16;5092311;28;20202;-62
2022/01/13 10:25:30;;;;;;;19.80;11.37;;;;;;;2.10;88.50;101222.50;5077751;28;20200;-61
2022/01/13 10:28:11;;;;;;;15.87;10.83;;;;;;;2.15;87.95;101215.81;5106088;28;20293;-62
2022/01/13 10:30:38;;;;;;;14.97;10.30;;;;;;;2.21;88.47;101199.81;5112025;28;20198;-62
2022/01/13 10:33:17;;;;;;;16.07;10.40;;;;;;;2.31;88.54;101206.09;5112331;28;20618;-62
2022/01/13 10:35:44;;;;;;;15.43;10.07;;;;;;;2.35;87.00;101196.00;5112156;28;20201;-62
2022/01/13 10:38:16;;;;;;;18.20;10.93;;;;;;;2.34;86.55;101191.69;5112081;28;20194;-61
2022/01/13 10:40:46;;;;;;;20.40;12.10;;;;;;;2.30;86.95;101184.72;5096526;28;20196;-62
2022/01/13 10:43:13;;;;;;;16.50;10.63;;;;;;;2.14;87.90;101162.00;5094070;28;20276;-61
2022/01/13 10:45:43;;;;;;;17.77;10.80;;;;;;;2.27;87.45;101158.13;5094051;28;20196;-62
2022/01/13 10:48:12;;;;;;;16.23;10.13;;;;;;;2.23;86.32;101158.88;5094299;28;20225;-61
2022/01/13 10:50:45;;;;;;;15.20;10.17;;;;;;;2.38;85.61;101151.63;5096678;28;20258;-62
2022/01/13 10:53:14;;;;;;;17.03;11.30;;;;;;;2.26;86.76;101135.91;5091631;28;20198;-62
2022/01/13 10:55:45;;;;;;;15.43;10.87;;;;;;;2.42;85.49;101145.78;5097048;28;20198;-62
2022/01/13 10:58:14;;;;;;;21.87;12.33;;;;;;;2.26;84.38;101147.00;5102583;28;20575;-58
2022/01/13 11:00:41;;;;;;;19.83;11.53;;;;;;;2.05;83.10;101110.47;5097217;28;20188;-57
2022/01/13 11:03:10;;;;;;;16.47;11.10;;;;;;;2.00;82.59;101112.03;5094355;28;20208;-57
2022/01/13 11:05:41;;;;;;;22.13;12.00;;;;;;;2.18;82.88;101125.41;5091265;28;20191;-57
2022/01/13 11:08:10;;;;;;;20.43;11.13;;;;;;;2.33;83.84;101142.94;5091184;28;20776;-58
2022/01/13 11:10:40;;;;;;;22.60;11.77;;;;;;;2.34;82.31;101140.44;5109432;28;20204;-57
2022/01/13 11:13:17;;;;;;;16.30;10.10;;;;;;;2.39;82.39;101127.75;5111688;28;20230;-58
2022/01/13 11:15:48;;;;;;;16.50;10.20;;;;;;;2.39;82.08;101114.94;5111653;28;20200;-58
2022/01/13 11:18:17;;;;;;;16.03;10.93;;;;;;;2.34;83.00;101116.50;5096225;28;20278;-58
2022/01/13 11:20:46;;;;;;;16.33;10.87;;;;;;;2.39;84.00;101110.69;5095798;28;20226;-58
2022/01/13 11:23:14;;;;;;;19.37;11.37;;;;;;;2.43;84.31;101103.97;5098367;28;20199;-58
2022/01/13 11:25:42;;;;;;;20.87;13.30;;;;;;;2.38;85.66;101108.94;5096866;28;20289;-58
2022/01/13 11:28:09;;;;;;;22.60;12.07;;;;;;;2.41;84.37;101100.47;5096967;28;20192;-57
2022/01/13 11:30:37;;;;;;;19.40;11.77;;;;;;;2.27;84.33;101065.88;5095603;28;20190;-58
2022/01/13 11:33:04;;;;;;;21.37;11.63;;;;;;;2.34;84.07;101081.50;5096784;28;20202;-57
2022/01/13 11:35:35;;;;;;;16.93;11.13;;;;;;;2.47;84.15;101088.72;5107301;28;20202;-57
2022/01/13 11:38:05;;;;;;;18.30;11.67;;;;;;;2.53;84.41;101082.91;5111416;28;20201;-56
2022/01/13 11:40:36;;;;;;;17.93;11.93;;;;;;;2.52;84.58;101078.59;5111056;28;20200;-57
2022/01/13 11:43:06;;;;;;;15.30;10.40;;;;;;;2.54;83.98;101064.13;5110962;28;20201;-56
2022/01/13 11:45:39;;;;;;;21.83;11.87;;;;;;;2.57;83.18;101074.47;5101676;28;20374;-58
2022/01/13 11:48:15;;;;;;;20.43;10.23;;;;;;;2.58;82.00;101068.53;5096265;28;20195;-61
2022/01/13 11:50:47;;;;;;;20.53;11.20;;;;;;;2.55;81.37;101074.44;5097871;28;20198;-62
2022/01/13 11:53:28;;;;;;;17.80;10.70;;;;;;;2.37;81.95;101049.97;5092947;28;20198;-62
2022/01/13 11:56:07;;;;;;;18.57;10.77;;;;;;;2.49;81.77;101083.63;5095600;28;20188;-62
2022/01/13 11:58:41;;;;;;;16.53;10.47;;;;;;;2.56;81.63;101083.00;5091964;28;20209;-62